Time;durP1;ratioP1;P1;durP2;ratioP2;P2;SDS_P1;SDS_P2;PMS_P1;PMS_P2;Temp;Humidity;BMP_temperature;BMP_pressure;BME280_temperature;BME280_humidity;BME280_pressure;Samples;Min_cycle;Max_cycle;Signal;HPM_P1;HPM_P2
2022/10/27 00:00:43;;;;;;;14.23;2.85;;;13.20;99.90;;;;;;5007706;28;20379;-62
2022/10/27 00:03:13;;;;;;;13.55;3.25;;;13.20;99.90;;;;;;5007362;28;20116;-62
2022/10/27 00:05:39;;;;;;;12.05;3.33;;;13.30;99.90;;;;;;5006459;28;20499;-62
2022/10/27 00:08:05;;;;;;;17.92;2.97;;;13.20;99.90;;;;;;5005534;28;20057;-62
2022/10/27 00:10:30;;;;;;;12.93;3.65;;;13.10;99.90;;;;;;5005042;28;20453;-62
2022/10/27 00:12:56;;;;;;;15.95;3.33;;;13.40;99.90;;;;;;5004167;28;20096;-62
2022/10/27 00:15:22;;;;;;;15.75;3.60;;;13.00;99.90;;;;;;5009642;28;20101;-62
2022/10/27 00:17:48;;;;;;;10.70;3.35;;;14.70;99.90;;;;;;5007353;28;20129;-62
2022/10/27 00:20:13;;;;;;;13.32;4.10;;;12.80;99.90;;;;;;5009945;28;20056;-62
2022/10/27 00:22:39;;;;;;;12.77;3.40;;;12.60;99.90;;;;;;5007283;28;20045;-62
2022/10/27 00:25:05;;;;;;;10.25;3.40;;;12.70;99.90;;;;;;5006609;28;20050;-62
2022/10/27 00:27:31;;;;;;;18.58;3.83;;;12.60;99.90;;;;;;5002121;28;20053;-61
2022/10/27 00:29:56;;;;;;;17.27;4.97;;;12.50;99.90;;;;;;5006585;28;20546;-62
2022/10/27 00:32:22;;;;;;;11.52;3.83;;;12.40;99.90;;;;;;5005286;28;20067;-62
2022/10/27 00:34:48;;;;;;;13.55;5.03;;;12.20;99.90;;;;;;5007587;28;24813;-62
2022/10/27 00:37:14;;;;;;;16.00;5.20;;;14.40;99.90;;;;;;5009935;28;20056;-62
2022/10/27 00:39:39;;;;;;;15.02;5.18;;;12.30;99.90;;;;;;5002582;28;20212;-62
2022/10/27 00:42:05;;;;;;;18.63;6.00;;;12.30;99.90;;;;;;5003138;28;20051;-62
2022/10/27 00:44:35;;;;;;;15.35;6.00;;;12.20;99.90;;;;;;5005581;28;20568;-62
2022/10/27 00:47:10;;;;;;;14.70;5.63;;;12.10;99.90;;;;;;5003265;28;20038;-62
2022/10/27 00:50:05;;;;;;;20.65;6.93;;;12.30;99.90;;;;;;5007329;28;21321;-62
2022/10/27 00:52:36;;;;;;;17.05;6.68;;;12.20;99.90;;;;;;5009431;28;20776;-62
2022/10/27 00:55:07;;;;;;;18.03;7.77;;;12.90;99.90;;;;;;5005174;28;20436;-62
2022/10/27 00:57:34;;;;;;;16.65;6.68;;;12.00;99.90;;;;;;5005367;28;20748;-62
2022/10/27 01:00:02;;;;;;;15.77;6.80;;;11.90;99.90;;;;;;5005071;28;20045;-62
2022/10/27 01:02:29;;;;;;;19.73;7.05;;;13.60;99.90;;;;;;5007316;28;20044;-62
2022/10/27 01:05:07;;;;;;;27.10;8.02;;;12.30;99.90;;;;;;5008274;28;20042;-62
2022/10/27 01:07:33;;;;;;;20.95;7.70;;;11.80;99.90;;;;;;5000543;28;20046;-62
2022/10/27 01:09:59;;;;;;;20.73;7.63;;;11.90;99.90;;;;;;5005358;28;20466;-63
2022/10/27 01:12:25;;;;;;;24.60;7.63;;;11.90;99.90;;;;;;5006191;28;20050;-62
2022/10/27 01:14:51;;;;;;;14.70;7.78;;;11.80;99.90;;;;;;5002935;28;20475;-62
2022/10/27 01:17:42;;;;;;;18.92;7.85;;;11.90;99.90;;;;;;5003913;28;20520;-62
2022/10/27 01:20:10;;;;;;;18.33;8.45;;;11.90;99.90;;;;;;5004802;28;20044;-63
2022/10/27 01:22:53;;;;;;;20.00;8.30;;;11.80;99.90;;;;;;5003660;28;20040;-62
2022/10/27 01:25:34;;;;;;;23.92;9.05;;;12.00;99.90;;;;;;4985283;28;20052;-62
2022/10/27 01:28:14;;;;;;;26.92;9.65;;;12.30;99.90;;;;;;5002912;28;20046;-62
2022/10/27 01:30:52;;;;;;;22.55;9.57;;;11.80;99.90;;;;;;5008819;28;20037;-62
2022/10/27 01:33:24;;;;;;;19.25;9.00;;;11.70;99.90;;;;;;5007530;28;20072;-62
2022/10/27 01:36:03;;;;;;;20.87;9.90;;;11.80;99.90;;;;;;5001569;28;20046;-62
2022/10/27 01:38:34;;;;;;;16.95;10.27;;;11.80;99.90;;;;;;4985296;28;20054;-62
2022/10/27 01:41:03;;;;;;;19.77;9.43;;;12.00;99.90;;;;;;5003438;28;20041;-62
2022/10/27 01:43:30;;;;;;;20.60;10.25;;;11.90;99.90;;;;;;5002340;28;20049;-62
2022/10/27 01:45:57;;;;;;;20.42;11.75;;;13.70;99.90;;;;;;5004897;28;20921;-61
2022/10/27 01:48:23;;;;;;;20.80;11.70;;;13.00;99.90;;;;;;5004640;28;20104;-62
2022/10/27 01:50:49;;;;;;;17.83;12.10;;;12.70;99.90;;;;;;5003462;28;20509;-62
2022/10/27 01:53:16;;;;;;;22.15;12.32;;;13.80;99.90;;;;;;5006090;28;20049;-62
2022/10/27 01:56:14;;;;;;;22.20;12.27;;;13.60;99.90;;;;;;5005432;28;20087;-62
2022/10/27 01:59:06;;;;;;;25.50;11.95;;;12.00;99.90;;;;;;5002787;28;20042;-62
2022/10/27 02:01:58;;;;;;;20.77;11.93;;;12.80;99.90;;;;;;5005068;28;20410;-62
2022/10/27 02:04:27;;;;;;;;;;;14.20;99.90;;;;;;5004799;28;20500;-62
2022/10/27 02:07:11;;;;;;;23.35;11.90;;;12.20;99.90;;;;;;5003336;28;20390;-62
2022/10/27 02:09:46;;;;;;;22.58;12.23;;;12.20;99.90;;;;;;5006293;28;20061;-62
2022/10/27 02:12:31;;;;;;;21.40;12.10;;;12.10;99.90;;;;;;5001714;28;20053;-62
2022/10/27 02:15:00;;;;;;;19.08;11.02;;;12.20;99.90;;;;;;5003136;28;20071;-62
2022/10/27 02:17:31;;;;;;;20.80;12.18;;;14.10;99.90;;;;;;5003837;28;20799;-62
2022/10/27 02:19:59;;;;;;;31.77;13.68;;;12.00;99.90;;;;;;5006846;28;20110;-62
2022/10/27 02:22:28;;;;;;;28.65;13.60;;;12.10;99.90;;;;;;5003373;28;20446;-61
2022/10/27 02:24:54;;;;;;;25.02;13.38;;;12.10;99.90;;;;;;5004086;28;20033;-62
2022/10/27 02:27:54;;;;;;;27.63;13.98;;;12.10;99.90;;;;;;5002829;28;20431;-62
2022/10/27 02:30:20;;;;;;;26.17;14.02;;;12.40;99.90;;;;;;5027643;28;20849;-63
2022/10/27 02:32:46;;;;;;;25.48;13.73;;;12.10;99.90;;;;;;5004323;28;20049;-62
2022/10/27 02:35:14;;;;;;;24.77;12.70;;;13.20;99.90;;;;;;5003223;28;20049;-63
2022/10/27 02:37:42;;;;;;;23.02;13.10;;;12.30;99.90;;;;;;5000870;28;20049;-63
2022/10/27 02:40:09;;;;;;;28.58;14.82;;;12.10;99.90;;;;;;5003955;28;20499;-62
2022/10/27 02:42:35;;;;;;;24.17;13.02;;;12.10;99.90;;;;;;5005877;28;20077;-62
2022/10/27 02:45:00;;;;;;;23.33;13.20;;;12.10;99.90;;;;;;5004479;28;20065;-63
2022/10/27 02:47:26;;;;;;;24.05;13.77;;;12.00;99.90;;;;;;5002190;28;20116;-62
2022/10/27 02:49:52;;;;;;;26.88;13.35;;;12.10;99.90;;;;;;5002540;28;20042;-62
2022/10/27 02:52:17;;;;;;;30.33;12.65;;;12.00;99.90;;;;;;5006959;28;20057;-62
2022/10/27 02:54:47;;;;;;;20.45;12.57;;;12.20;99.90;;;;;;5007301;28;20045;-62
2022/10/27 02:57:17;;;;;;;23.73;11.63;;;12.10;99.90;;;;;;5009294;28;20574;-62
2022/10/27 02:59:43;;;;;;;22.00;11.50;;;11.90;99.90;;;;;;5008651;28;20048;-62
2022/10/27 03:02:09;;;;;;;21.15;11.57;;;14.10;99.90;;;;;;5005423;28;20054;-62
2022/10/27 03:04:35;;;;;;;22.38;12.27;;;11.90;99.90;;;;;;5009219;28;20068;-62
2022/10/27 03:07:01;;;;;;;21.25;11.80;;;12.00;99.90;;;;;;5008590;28;20404;-60
2022/10/27 03:09:26;;;;;;;19.27;11.93;;;12.10;99.90;;;;;;5009196;28;20076;-61
2022/10/27 03:11:52;;;;;;;25.58;12.18;;;12.10;99.90;;;;;;5007180;28;20118;-62
2022/10/27 03:14:18;;;;;;;20.58;13.05;;;13.40;99.90;;;;;;5008797;28;20530;-62
2022/10/27 03:16:43;;;;;;;23.23;13.07;;;12.70;99.90;;;;;;5008223;28;20132;-62
2022/10/27 03:19:09;;;;;;;17.65;11.52;;;12.20;99.90;;;;;;5008941;28;20065;-62
2022/10/27 03:21:35;;;;;;;23.70;11.90;;;12.40;99.90;;;;;;5009894;28;20050;-62
2022/10/27 03:24:01;;;;;;;17.90;12.20;;;14.00;99.90;;;;;;5005646;28;20069;-62
2022/10/27 03:26:26;;;;;;;24.73;11.63;;;14.40;99.90;;;;;;5007680;28;20589;-62
2022/10/27 03:28:52;;;;;;;25.33;12.15;;;13.50;99.90;;;;;;5006457;28;20717;-62
2022/10/27 03:31:18;;;;;;;22.25;13.05;;;13.10;99.90;;;;;;5005737;28;20061;-62
2022/10/27 03:33:44;;;;;;;21.63;12.38;;;13.40;99.90;;;;;;5006657;28;20041;-62
2022/10/27 03:36:13;;;;;;;22.60;11.68;;;11.20;99.90;;;;;;5005576;28;20058;-62
2022/10/27 03:38:38;;;;;;;22.85;12.40;;;12.30;99.90;;;;;;5006494;28;20041;-62
2022/10/27 03:41:04;;;;;;;25.83;12.55;;;12.40;99.90;;;;;;5004171;28;20063;-62
2022/10/27 03:43:30;;;;;;;21.65;12.50;;;12.30;99.90;;;;;;5008322;28;20411;-62
2022/10/27 03:45:56;;;;;;;18.30;11.93;;;12.40;99.90;;;;;;5003587;28;20045;-62
2022/10/27 03:48:21;;;;;;;22.90;11.90;;;12.20;99.90;;;;;;5005578;28;20118;-62
2022/10/27 03:50:49;;;;;;;24.95;12.15;;;12.40;99.90;;;;;;5007561;28;20053;-62
2022/10/27 03:53:16;;;;;;;19.00;10.85;;;12.30;99.90;;;;;;5007600;28;20423;-62
2022/10/27 03:55:42;;;;;;;18.33;11.13;;;12.30;99.90;;;;;;5006823;28;20195;-62
2022/10/27 03:58:12;;;;;;;25.67;11.75;;;12.30;99.90;;;;;;5005704;28;20121;-61
2022/10/27 04:00:38;;;;;;;23.15;11.93;;;12.50;99.90;;;;;;5003911;28;20197;-63
2022/10/27 04:03:04;;;;;;;23.48;11.60;;;12.50;99.90;;;;;;5007390;28;20042;-63
2022/10/27 04:05:30;;;;;;;21.73;11.77;;;12.20;99.90;;;;;;5004521;28;20116;-63
2022/10/27 04:07:56;;;;;;;20.25;12.02;;;12.20;99.90;;;;;;5007421;28;20037;-63
2022/10/27 04:10:21;;;;;;;28.40;12.50;;;12.30;99.90;;;;;;5005673;28;20041;-63
2022/10/27 04:12:52;;;;;;;25.92;13.20;;;13.90;99.90;;;;;;5009487;28;20095;-63
2022/10/27 04:15:18;;;;;;;25.90;13.18;;;12.20;99.90;;;;;;5004569;28;20084;-63
2022/10/27 04:17:44;;;;;;;22.95;11.45;;;12.10;99.90;;;;;;5007144;28;20088;-62
2022/10/27 04:20:11;;;;;;;20.60;12.65;;;12.70;99.90;;;;;;4998385;28;20052;-62
2022/10/27 04:22:37;;;;;;;19.42;11.95;;;12.20;99.90;;;;;;5006547;28;20073;-62
2022/10/27 04:25:03;;;;;;;21.98;11.85;;;14.40;99.90;;;;;;5008734;28;20542;-62
2022/10/27 04:27:29;;;;;;;23.75;13.02;;;12.10;99.90;;;;;;5007094;28;20846;-62
2022/10/27 04:29:54;;;;;;;22.95;13.75;;;12.60;99.90;;;;;;5007419;28;20057;-63
2022/10/27 04:32:20;;;;;;;31.05;13.90;;;13.70;99.90;;;;;;5008755;28;20110;-63
2022/10/27 04:34:46;;;;;;;29.70;13.73;;;12.50;99.90;;;;;;5008334;28;20128;-61
2022/10/27 04:37:12;;;;;;;23.27;13.52;;;12.20;99.90;;;;;;5008106;28;20034;-63
2022/10/27 04:39:38;;;;;;;23.50;13.00;;;13.70;99.90;;;;;;5005331;28;20525;-62
2022/10/27 04:42:03;;;;;;;21.42;11.65;;;13.40;99.90;;;;;;5006483;28;20283;-62
2022/10/27 04:44:29;;;;;;;25.63;13.77;;;9.90;99.90;;;;;;5004302;28;20152;-62
2022/10/27 04:46:55;;;;;;;19.95;13.63;;;13.20;99.90;;;;;;5008230;28;20056;-63
2022/10/27 04:49:20;;;;;;;24.75;14.05;;;12.80;99.90;;;;;;5007432;28;20052;-63
2022/10/27 04:51:46;;;;;;;28.88;15.00;;;12.20;99.90;;;;;;5003537;28;20438;-65
2022/10/27 04:54:12;;;;;;;23.40;13.55;;;12.10;99.90;;;;;;5006736;28;20046;-65
2022/10/27 04:56:38;;;;;;;25.83;14.35;;;12.10;99.90;;;;;;5006252;28;20094;-65
2022/10/27 04:59:03;;;;;;;26.90;14.57;;;12.20;99.90;;;;;;5005204;28;20045;-65
2022/10/27 05:01:29;;;;;;;24.63;13.88;;;12.10;99.90;;;;;;5006520;28;20044;-65
2022/10/27 05:03:55;;;;;;;28.77;15.88;;;12.30;99.90;;;;;;5006490;28;20041;-65
2022/10/27 05:06:21;;;;;;;23.83;14.02;;;12.00;99.90;;;;;;5006934;28;21101;-64
2022/10/27 05:08:46;;;;;;;26.83;14.93;;;12.20;99.90;;;;;;5005017;28;20038;-64
2022/10/27 05:11:12;;;;;;;29.08;14.50;;;12.10;99.90;;;;;;5006315;28;20495;-64
2022/10/27 05:13:38;;;;;;;28.38;15.80;;;12.40;99.90;;;;;;5002488;28;20053;-64
2022/10/27 05:16:04;;;;;;;29.35;15.70;;;12.90;99.90;;;;;;5003063;28;20038;-63
2022/10/27 05:18:30;;;;;;;27.48;15.52;;;12.00;99.90;;;;;;5004818;28;20075;-64
2022/10/27 05:20:56;;;;;;;26.52;15.35;;;14.10;99.90;;;;;;5002562;28;20041;-64
2022/10/27 05:23:22;;;;;;;30.50;15.90;;;13.90;99.90;;;;;;5005693;28;20050;-64
2022/10/27 05:25:52;;;;;;;24.23;14.45;;;12.30;99.90;;;;;;5003288;28;20041;-63
2022/10/27 05:28:18;;;;;;;33.20;16.23;;;12.20;99.90;;;;;;5006197;28;20724;-64
2022/10/27 05:30:44;;;;;;;25.80;15.23;;;12.10;99.90;;;;;;5004020;28;20041;-64
2022/10/27 05:33:10;;;;;;;30.10;14.18;;;12.10;99.90;;;;;;5007158;28;20042;-63
2022/10/27 05:35:35;;;;;;;24.13;15.25;;;12.20;99.90;;;;;;5007701;28;20072;-63
2022/10/27 05:38:01;;;;;;;22.27;15.02;;;12.50;99.90;;;;;;5005282;28;20041;-63
2022/10/27 05:40:33;;;;;;;24.48;15.48;;;12.20;99.90;;;;;;5004862;28;20094;-61
2022/10/27 05:42:59;;;;;;;26.83;14.80;;;12.20;99.90;;;;;;5003200;28;20045;-61
2022/10/27 05:45:25;;;;;;;26.85;15.20;;;12.30;99.90;;;;;;5004033;28;20499;-60
2022/10/27 05:48:20;;;;;;;28.55;14.93;;;12.30;99.90;;;;;;5007439;28;20041;-61
2022/10/27 05:50:52;;;;;;;28.95;14.85;;;12.50;99.90;;;;;;5008425;28;20406;-61
2022/10/27 05:53:18;;;;;;;23.88;15.15;;;12.40;99.90;;;;;;5002905;28;20296;-61
2022/10/27 05:55:43;;;;;;;28.85;16.13;;;12.30;99.90;;;;;;5007129;28;20054;-61
2022/10/27 05:58:10;;;;;;;24.63;14.90;;;12.50;99.90;;;;;;5008662;28;20061;-61
2022/10/27 06:00:37;;;;;;;27.42;14.75;;;12.50;99.90;;;;;;5004097;28;20139;-61
2022/10/27 06:03:06;;;;;;;32.60;16.08;;;12.30;99.90;;;;;;5006565;28;20049;-60
2022/10/27 06:05:34;;;;;;;26.77;14.18;;;12.40;99.90;;;;;;5002292;28;20041;-60
2022/10/27 06:08:00;;;;;;;29.50;15.38;;;12.60;99.90;;;;;;5003254;28;20041;-61
2022/10/27 06:10:28;;;;;;;24.73;14.05;;;12.50;99.90;;;;;;5002588;28;20891;-61
2022/10/27 06:13:01;;;;;;;26.60;14.23;;;12.70;99.90;;;;;;5004033;28;20107;-61
2022/10/27 06:15:27;;;;;;;23.90;14.63;;;12.40;99.90;;;;;;5002873;28;20118;-61
2022/10/27 06:17:53;;;;;;;26.15;14.55;;;12.60;99.90;;;;;;5000562;28;20038;-61
2022/10/27 06:20:19;;;;;;;28.27;15.70;;;12.50;99.90;;;;;;4998942;28;20073;-61
2022/10/27 06:22:45;;;;;;;21.85;13.98;;;12.50;99.90;;;;;;5005118;28;20049;-61
2022/10/27 06:25:11;;;;;;;28.30;14.88;;;12.40;99.90;;;;;;5002962;28;20034;-60
2022/10/27 06:27:37;;;;;;;23.55;13.75;;;12.50;99.90;;;;;;5004804;28;20515;-61
2022/10/27 06:30:03;;;;;;;23.77;13.95;;;10.50;99.90;;;;;;5004809;28;20118;-61
2022/10/27 06:32:29;;;;;;;24.98;14.63;;;12.50;99.90;;;;;;5003556;28;20121;-61
2022/10/27 06:34:54;;;;;;;25.50;13.50;;;12.40;99.90;;;;;;5005911;28;20136;-61
2022/10/27 06:37:20;;;;;;;27.95;13.85;;;12.30;99.90;;;;;;5005646;28;20391;-60
2022/10/27 06:39:46;;;;;;;22.80;13.43;;;12.40;99.90;;;;;;5000446;28;20065;-61
2022/10/27 06:42:12;;;;;;;17.63;13.43;;;12.40;99.90;;;;;;5002169;28;20230;-61
2022/10/27 06:44:38;;;;;;;23.77;14.13;;;12.30;99.90;;;;;;5002605;28;20503;-61
2022/10/27 06:47:03;;;;;;;20.50;13.48;;;12.90;99.90;;;;;;5003088;28;20056;-60
2022/10/27 06:49:29;;;;;;;22.75;13.90;;;12.50;99.90;;;;;;5003978;28;20148;-60
2022/10/27 06:51:55;;;;;;;17.88;12.18;;;12.40;99.90;;;;;;5001334;28;20053;-61
2022/10/27 06:54:20;;;;;;;19.65;12.63;;;12.40;99.90;;;;;;5004130;28;20694;-61
2022/10/27 06:56:46;;;;;;;23.50;13.27;;;12.60;99.90;;;;;;5005834;28;20048;-61
2022/10/27 06:59:12;;;;;;;23.70;12.07;;;13.20;99.90;;;;;;5004449;28;20045;-61
2022/10/27 07:01:38;;;;;;;19.33;13.18;;;12.60;99.90;;;;;;5005738;28;21214;-61
2022/10/27 07:04:03;;;;;;;22.75;14.38;;;12.80;99.90;;;;;;5006310;28;20045;-61
2022/10/27 07:06:29;;;;;;;20.20;12.52;;;12.70;99.90;;;;;;5004086;28;20146;-60
2022/10/27 07:08:55;;;;;;;17.73;11.60;;;12.80;99.90;;;;;;5003399;28;20132;-61
2022/10/27 07:11:25;;;;;;;16.98;11.20;;;13.00;99.90;;;;;;5003482;28;20515;-60
2022/10/27 07:13:51;;;;;;;19.50;11.80;;;14.90;99.90;;;;;;5004410;28;20052;-61
2022/10/27 07:16:17;;;;;;;16.45;11.98;;;13.00;99.90;;;;;;5005123;28;20047;-61
2022/10/27 07:18:43;;;;;;;19.33;11.13;;;13.00;99.90;;;;;;5001301;28;20708;-61
2022/10/27 07:21:09;;;;;;;20.05;10.90;;;12.90;99.90;;;;;;5006589;28;20033;-61
2022/10/27 07:23:35;;;;;;;19.63;11.20;;;13.00;99.90;;;;;;5003138;28;20109;-61
2022/10/27 07:26:00;;;;;;;14.80;10.85;;;13.20;99.90;;;;;;5004011;28;20030;-61
2022/10/27 07:28:26;;;;;;;18.52;10.20;;;13.80;99.90;;;;;;5005435;28;20117;-61
2022/10/27 07:30:54;;;;;;;18.75;10.48;;;13.40;99.90;;;;;;5003101;28;20083;-61
2022/10/27 07:33:20;;;;;;;16.48;10.07;;;13.30;99.90;;;;;;5001093;28;20053;-61
2022/10/27 07:35:50;;;;;;;19.10;9.85;;;13.30;99.90;;;;;;5001686;28;20052;-61
2022/10/27 07:38:17;;;;;;;17.55;9.38;;;13.40;99.90;;;;;;5005072;28;20117;-61
2022/10/27 07:40:43;;;;;;;18.77;10.02;;;13.20;99.90;;;;;;5010097;28;20700;-61
2022/10/27 07:43:10;;;;;;;16.42;9.50;;;13.40;99.90;;;;;;5006598;28;20041;-61
2022/10/27 07:45:37;;;;;;;15.27;9.15;;;13.50;99.90;;;;;;5009310;28;20041;-61
2022/10/27 07:48:03;;;;;;;16.45;8.95;;;13.50;99.90;;;;;;5008754;28;20046;-61
2022/10/27 07:50:31;;;;;;;14.30;8.75;;;13.50;99.90;;;;;;5007785;28;20041;-62
2022/10/27 07:52:58;;;;;;;15.32;8.98;;;13.70;99.90;;;;;;5007811;28;20392;-61
2022/10/27 07:55:26;;;;;;;21.58;8.90;;;13.60;99.90;;;;;;5006060;28;20056;-61
2022/10/27 07:58:06;;;;;;;12.38;8.75;;;13.60;99.90;;;;;;5007149;28;23359;-62
2022/10/27 08:00:34;;;;;;;15.20;8.38;;;13.80;99.90;;;;;;5005465;28;20518;-61
2022/10/27 08:03:04;;;;;;;19.50;9.30;;;13.90;99.90;;;;;;5006640;28;20056;-62
2022/10/27 08:05:32;;;;;;;13.60;8.23;;;14.00;99.90;;;;;;5004887;28;20048;-62
2022/10/27 08:08:03;;;;;;;11.25;7.57;;;14.10;99.90;;;;;;5005034;28;20060;-62
2022/10/27 08:10:31;;;;;;;15.23;8.50;;;14.10;99.90;;;;;;5002351;28;20061;-61
2022/10/27 08:12:57;;;;;;;16.65;8.82;;;14.30;99.90;;;;;;5004515;28;20038;-62
2022/10/27 08:15:23;;;;;;;13.50;8.13;;;14.40;99.90;;;;;;5003623;28;20095;-61
2022/10/27 08:17:53;;;;;;;15.38;7.90;;;14.30;99.90;;;;;;5010569;28;20076;-62
2022/10/27 08:20:19;;;;;;;13.70;7.60;;;14.20;99.90;;;;;;5003562;28;20388;-62
2022/10/27 08:22:44;;;;;;;14.52;7.88;;;14.30;99.90;;;;;;5006323;28;20049;-62
2022/10/27 08:25:10;;;;;;;13.10;7.28;;;14.50;99.90;;;;;;5006147;28;20506;-62
2022/10/27 08:27:36;;;;;;;18.75;8.25;;;14.30;99.90;;;;;;5008448;28;20065;-62
2022/10/27 08:30:03;;;;;;;17.17;7.85;;;14.50;99.90;;;;;;5008109;28;20385;-61
2022/10/27 08:32:28;;;;;;;16.27;7.68;;;14.30;99.90;;;;;;5003905;28;20076;-62
2022/10/27 08:34:54;;;;;;;13.57;7.72;;;14.30;99.90;;;;;;5002347;28;20128;-62
2022/10/27 08:37:20;;;;;;;12.15;6.93;;;14.40;99.90;;;;;;5009295;28;20037;-62
2022/10/27 08:39:45;;;;;;;14.25;7.50;;;16.50;99.90;;;;;;5004085;28;20052;-62
2022/10/27 08:42:44;;;;;;;12.45;7.35;;;13.50;99.90;;;;;;5005448;28;20037;-63
2022/10/27 08:45:21;;;;;;;16.08;6.88;;;14.90;99.90;;;;;;5007150;28;20042;-62
2022/10/27 08:47:48;;;;;;;10.82;6.72;;;15.10;99.90;;;;;;5007476;28;20351;-63
2022/10/27 08:50:22;;;;;;;13.15;7.05;;;15.40;99.90;;;;;;5006316;28;20055;-62
2022/10/27 08:52:58;;;;;;;13.75;6.80;;;15.60;99.90;;;;;;5005901;28;20084;-63
2022/10/27 08:55:36;;;;;;;13.02;7.50;;;16.10;99.90;;;;;;5001898;28;20511;-63
2022/10/27 08:58:17;;;;;;;13.05;7.03;;;16.20;99.90;;;;;;5007995;28;20069;-63
2022/10/27 09:00:55;;;;;;;9.95;6.10;;;16.50;99.90;;;;;;5007894;28;20046;-63
2022/10/27 09:03:46;;;;;;;16.60;6.93;;;16.70;99.90;;;;;;5003815;28;20449;-63
2022/10/27 09:06:18;;;;;;;13.35;6.47;;;16.90;99.90;;;;;;5008175;28;20033;-63
2022/10/27 09:08:56;;;;;;;10.73;5.97;;;16.90;99.90;;;;;;5004052;28;20053;-64
2022/10/27 09:11:38;;;;;;;11.27;5.80;;;17.10;99.90;;;;;;5005903;28;20216;-63
2022/10/27 09:14:30;;;;;;;12.63;6.38;;;17.10;99.90;;;;;;5002170;28;20081;-63
2022/10/27 09:17:21;;;;;;;10.37;5.43;;;17.10;99.90;;;;;;5004797;28;20438;-63
2022/10/27 09:19:51;;;;;;;11.93;6.43;;;17.40;98.10;;;;;;5004777;28;20042;-64
2022/10/27 09:22:19;;;;;;;11.35;5.55;;;17.30;99.90;;;;;;4999250;28;20043;-64
2022/10/27 09:24:53;;;;;;;11.27;5.68;;;17.10;99.90;;;;;;5007364;28;24035;-63
2022/10/27 09:27:20;;;;;;;9.60;5.45;;;17.10;99.90;;;;;;5003917;28;20701;-64
2022/10/27 09:29:49;;;;;;;10.55;6.05;;;17.10;99.90;;;;;;5007865;28;20033;-64
2022/10/27 09:32:17;;;;;;;11.30;5.70;;;16.90;99.90;;;;;;5001701;28;20049;-64
2022/10/27 09:34:52;;;;;;;11.80;5.70;;;17.00;99.90;;;;;;4999737;28;20102;-64
2022/10/27 09:37:19;;;;;;;12.23;5.60;;;16.90;99.90;;;;;;5004921;28;20041;-63
2022/10/27 09:39:51;;;;;;;9.43;5.00;;;16.90;99.90;;;;;;5007333;28;20102;-64
2022/10/27 09:42:17;;;;;;;12.82;5.13;;;16.80;99.90;;;;;;5009475;28;20044;-64
2022/10/27 09:44:57;;;;;;;8.48;4.82;;;16.80;99.90;;;;;;5005009;28;20076;-64
2022/10/27 09:47:32;;;;;;;12.80;4.75;;;16.70;99.90;;;;;;5006205;28;20037;-64
2022/10/27 09:49:59;;;;;;;9.35;4.22;;;16.70;99.90;;;;;;5001855;28;20065;-64
2022/10/27 09:52:28;;;;;;;12.93;4.53;;;16.90;99.90;;;;;;5008828;28;20037;-64
2022/10/27 09:54:56;;;;;;;11.30;4.28;;;16.80;99.90;;;;;;5004842;28;20053;-64
2022/10/27 09:57:36;;;;;;;13.38;5.20;;;16.80;99.90;;;;;;5003594;28;20402;-64
2022/10/27 10:00:06;;;;;;;10.75;4.63;;;16.70;99.90;;;;;;5002667;28;20076;-64
2022/10/27 10:02:36;;;;;;;7.88;4.15;;;16.80;99.90;;;;;;5003396;28;20129;-64
2022/10/27 10:05:23;;;;;;;14.52;4.55;;;16.70;99.90;;;;;;5004982;28;20048;-64
2022/10/27 10:07:49;;;;;;;10.57;4.40;;;16.80;99.80;;;;;;5005874;28;20285;-64
2022/10/27 10:10:33;;;;;;;9.20;3.78;;;16.80;99.90;;;;;;5004582;28;20040;-64
2022/10/27 10:13:05;;;;;;;12.82;4.07;;;16.80;99.90;;;;;;5007099;28;20048;-64
2022/10/27 10:15:39;;;;;;;11.07;4.65;;;16.60;99.30;;;;;;5003986;28;20038;-63
2022/10/27 10:18:21;;;;;;;10.13;3.60;;;16.80;99.70;;;;;;5002421;28;20120;-64
2022/10/27 10:20:54;;;;;;;;;;;16.90;99.40;;;;;;5001357;28;20065;-64
2022/10/27 10:23:23;;;;;;;8.93;3.70;;;17.10;97.80;;;;;;5004603;28;20343;-64
2022/10/27 10:25:50;;;;;;;7.60;3.10;;;17.10;97.80;;;;;;5003509;28;20053;-63
2022/10/27 10:28:23;;;;;;;9.98;3.85;;;17.00;96.00;;;;;;5005408;28;20061;-64
2022/10/27 10:30:52;;;;;;;9.20;3.95;;;17.20;95.50;;;;;;5000585;28;20138;-64
2022/10/27 10:33:18;;;;;;;10.85;3.38;;;17.20;97.00;;;;;;5001877;28;20076;-63
2022/10/27 10:35:49;;;;;;;6.95;3.00;;;17.30;95.50;;;;;;5003824;28;20084;-63
2022/10/27 10:38:36;;;;;;;8.70;3.58;;;17.30;93.10;;;;;;5007039;28;20076;-63
2022/10/27 10:41:04;;;;;;;9.45;3.30;;;17.30;92.50;;;;;;5005758;28;20048;-63
2022/10/27 10:43:31;;;;;;;7.82;3.15;;;17.50;94.50;;;;;;5003266;28;20037;-62
2022/10/27 10:45:57;;;;;;;8.32;3.15;;;17.50;92.50;;;;;;5005642;28;21255;-63
2022/10/27 10:48:54;;;;;;;10.60;3.42;;;17.30;93.00;;;;;;5002371;28;20042;-63
2022/10/27 10:51:33;;;;;;;5.90;2.90;;;17.60;91.20;;;;;;5003279;28;20145;-64
2022/10/27 10:54:13;;;;;;;7.80;2.75;;;17.70;92.10;;;;;;5002413;28;20102;-63
2022/10/27 10:56:39;;;;;;;9.57;3.10;;;15.60;90.10;;;;;;5000388;28;20078;-64
2022/10/27 10:59:13;;;;;;;8.57;2.72;;;18.00;91.60;;;;;;5007128;28;20632;-64
2022/10/27 11:01:53;;;;;;;6.22;2.50;;;18.30;85.40;;;;;;4979868;28;20508;-63
2022/10/27 11:04:29;;;;;;;10.95;3.05;;;18.10;84.70;;;;;;5006851;28;20463;-64
2022/10/27 11:07:05;;;;;;;9.25;2.55;;;18.20;79.00;;;;;;5003700;28;20046;-63
2022/10/27 11:09:42;;;;;;;11.63;3.65;;;18.20;76.50;;;;;;5004186;28;20045;-63
2022/10/27 11:12:27;;;;;;;7.07;2.55;;;18.30;72.10;;;;;;5001978;28;20114;-63
2022/10/27 11:14:57;;;;;;;6.93;2.45;;;18.30;68.70;;;;;;5006507;28;20591;-63
2022/10/27 11:17:24;;;;;;;7.32;2.63;;;18.40;70.80;;;;;;5022710;28;20817;-64
2022/10/27 11:19:51;;;;;;;8.48;2.40;;;18.40;68.60;;;;;;5011566;28;20042;-64
2022/10/27 11:22:19;;;;;;;5.93;2.00;;;18.50;60.00;;;;;;5008748;28;20493;-63
2022/10/27 11:25:03;;;;;;;8.63;2.35;;;18.30;61.20;;;;;;5063476;28;20175;-63
2022/10/27 11:28:00;;;;;;;7.40;2.58;;;18.50;58.00;;;;;;4989491;28;20034;-63
2022/10/27 11:30:27;;;;;;;6.63;2.20;;;18.60;51.10;;;;;;5011037;28;20409;-64
2022/10/27 11:33:14;;;;;;;8.65;2.03;;;18.80;41.60;;;;;;5007053;28;20091;-66
2022/10/27 11:36:15;;;;;;;5.93;1.70;;;18.70;31.50;;;;;;5006470;28;20073;-66
2022/10/27 11:39:02;;;;;;;9.25;2.13;;;18.70;37.40;;;;;;5002851;28;20073;-66
2022/10/27 11:41:45;;;;;;;8.18;1.92;;;18.90;22.20;;;;;;5005463;28;20088;-66
2022/10/27 11:44:32;;;;;;;5.18;1.60;;;18.80;23.30;;;;;;5008524;28;20041;-67
2022/10/27 11:47:16;;;;;;;5.38;2.33;;;18.90;19.00;;;;;;5003458;28;20132;-67
2022/10/27 11:49:58;;;;;;;7.97;1.30;;;18.90;9.50;;;;;;5003603;28;20046;-67
2022/10/27 11:52:47;;;;;;;10.15;2.25;;;19.20;7.10;;;;;;5005370;28;20102;-68
2022/10/27 11:55:16;;;;;;;11.50;1.50;;;19.20;8.10;;;;;;5000871;28;20049;-68
2022/10/27 11:58:03;;;;;;;5.57;1.42;;;19.20;6.20;;;;;;5005733;28;20566;-67
2022/10/27 12:00:35;;;;;;;8.07;2.17;;;19.40;1.00;;;;;;5008277;28;20266;-67
2022/10/27 12:03:03;;;;;;;7.28;1.60;;;19.10;2.60;;;;;;5006299;28;20037;-68
2022/10/27 12:05:52;;;;;;;6.22;1.98;;;19.20;1.00;;;;;;5002195;28;20034;-68
2022/10/27 12:08:17;;;;;;;6.18;1.98;;;19.10;1.00;;;;;;5004421;28;20632;-67
2022/10/27 12:10:54;;;;;;;4.60;1.25;;;19.10;4.40;;;;;;5002349;28;20164;-68
2022/10/27 12:13:32;;;;;;;4.40;1.48;;;19.30;1.00;;;;;;5003507;28;20838;-68
2022/10/27 12:16:06;;;;;;;6.40;1.42;;;19.30;1.00;;;;;;5006543;28;20041;-68
2022/10/27 12:18:37;;;;;;;6.20;1.42;;;19.20;1.00;;;;;;5006420;28;20090;-67
2022/10/27 12:21:14;;;;;;;7.50;1.50;;;19.30;1.00;;;;;;5006675;28;20041;-68
2022/10/27 12:24:02;;;;;;;5.35;1.48;;;19.20;1.00;;;;;;5005557;28;20392;-68
2022/10/27 12:26:50;;;;;;;5.15;1.50;;;19.40;1.00;;;;;;5005656;28;20463;-69
2022/10/27 12:29:18;;;;;;;5.15;1.10;;;19.40;1.00;;;;;;5004899;28;20445;-69
2022/10/27 12:31:59;;;;;;;8.18;1.00;;;19.50;1.00;;;;;;5008075;28;20454;-69
2022/10/27 12:34:43;;;;;;;7.72;1.35;;;19.60;1.00;;;;;;5005039;28;20033;-69
2022/10/27 12:37:29;;;;;;;5.97;1.30;;;19.40;1.00;;;;;;5004407;28;20456;-68
2022/10/27 12:40:12;;;;;;;5.50;1.35;;;19.70;1.00;;;;;;5003414;28;20442;-69
2022/10/27 12:43:04;;;;;;;3.10;0.77;;;19.40;1.00;;;;;;5008933;28;20395;-69
2022/10/27 12:45:58;;;;;;;4.18;1.05;;;19.60;1.00;;;;;;5003560;28;20045;-69
2022/10/27 12:48:48;;;;;;;5.00;1.42;;;19.30;1.00;;;;;;5004097;28;20503;-70
2022/10/27 12:51:50;;;;;;;10.05;1.60;;;19.50;1.00;;;;;;5020832;28;20674;-71
2022/10/27 12:54:42;;;;;;;4.10;1.23;;;19.40;1.00;;;;;;5001082;28;20041;-71